This is the latest recevied weather packets stored in our database for station/object XE2AD-5. If no packets are shown the sender has not sent any weather packets the latest 10 day(s).
| Time | Temp. | Humidity | Pressure | Rain* | Wind** | Luminosity | Snow |
|---|---|---|---|---|---|---|---|
| 1788236006 | 24.44° C | 47% | 811.8 hPa | - | - | - | - |
| 1788203005 | 22.78° C | 50% | 811.7 hPa | - | - | - | - |
| 1788193104 | 22.22° C | 51% | 812.5 hPa | - | - | - | - |
| 1788186504 | 22.78° C | 50% | 812.6 hPa | - | - | - | - |
| 1788179903 | 23.33° C | 50% | 812.1 hPa | - | - | - | - |
| 1788173303 | 23.89° C | 49% | 811.2 hPa | - | - | - | - |
| 1788170003 | 23.89° C | 49% | 811.5 hPa | - | - | - | - |
| 1788166703 | 23.89° C | 48% | 811.4 hPa | - | - | - | - |
| 1788163403 | 24.44° C | 48% | 811.7 hPa | - | - | - | - |
| 1788160103 | 25° C | 47% | 811.7 hPa | - | - | - | - |
| 1788156802 | 25° C | 46% | 811.3 hPa | - | - | - | - |
| 1788154758 | 25° C | 46% | 811.8 hPa | - | - | - | - |
| 1788151458 | 25.56° C | 44% | 811.4 hPa | - | - | - | - |
| 1788148158 | 26.11° C | 42% | 810.9 hPa | - | - | - | - |
| 1788146366 | 26.11° C | 40% | 810.5 hPa | - | - | - | - |
| 1788143066 | 26.11° C | 38% | 809 hPa | - | - | - | - |
| 1788123265 | 25° C | 41% | 808.8 hPa | - | - | - | - |
| 1788119965 | 25° C | 42% | 809.6 hPa | - | - | - | - |
| 1788116665 | 24.44° C | 43% | 810.6 hPa | - | - | - | - |
| 1788106764 | 23.33° C | 47% | 812.3 hPa | - | - | - | - |
| 1788103464 | 23.33° C | 48% | 812.2 hPa | - | - | - | - |
| 1788100164 | 23.33° C | 48% | 812.3 hPa | - | - | - | - |
| 1788096864 | 23.89° C | 47% | 812.1 hPa | - | - | - | - |
| 1788093829 | 23.89° C | 46% | 811.7 hPa | - | - | - | - |
| 1788093563 | 23.89° C | 46% | 811.7 hPa | - | - | - | - |
* Rain since midnight (hover to see other rain measurements)
** Current wind speed in m/s (hover to see current wind gust speed)